Главная страница
METAR-TAF:

METAR-TAF

Аэропорты :

Туле (авиабаза)

Туле, Гренландия

широта: 76-32N, долгота: 068-42W, высота над уровнем моря: 77 м

Текущие метеонаблюдения

Эта сводка был подготовлена 17 минут назад, в 20:56 UTC
Ветер 6 Узел от восточный
Температура -13°C
Влажность 78%
Давление 999 hPa
Видимость 10 км и более
Сплошная облачность на высоте 1800 фута

METAR: BGTL 202056Z AUTO 09006KT 9999 OVC018 M13/M16 A2949 RMK AO2 SLP976 T11321157 52019 TSNO $

Время: 18:13 (21:13 UTC)

Прогноз

Эта сводка был подготовлена 28 часа и 13 минут назад, в 17:00 UTC
Прогноз действительный с 19-го 17 UTC до 20-го 23 UTC
Ветер 9 Узел от восточно-северо-восточный
Видимость: 2209 м
Отдельные облака на высоте 5000 фута

TAF: BGTL 191700Z 1917/2023 06009KT 9999 SCT050 QNH2962INS TXM08/1918Z TNM16/2017Z LAST NO AMDS AFT 1919 NEXT 2209

Метеонаблюдения и прогнозы для более 4000 аэропортов (сводки METAR и TAF).

Имеющиеся станции представлены на карте желтыми и красными точками.

Чтобы увидеть название станции, наведите на нее мышь.

Затем щелкните, чтобы увидеть метеонаблюдения и метеопрогнозы.

Управление картой: чтобы увеличить масштаб, щелкните зеленые кнопки с черным крестиком; чтобы уменьшить масштаб, щелкните зеленую кнопку с тире; для просмотра соседних карт щелкайте зеленые стрелки.


METAR-TAF: